sensor_id;sensor_type;location;lat;lon;timestamp;P1;durP1;ratioP1;P2;durP2;ratioP2
40116;SDS011;25829;50.228;18.936;2022-07-21T00:01:20;9.10;;;6.95;;
40116;SDS011;25829;50.228;18.936;2022-07-21T00:04:21;9.10;;;6.55;;
40116;SDS011;25829;50.228;18.936;2022-07-21T00:07:22;7.47;;;6.47;;
40116;SDS011;25829;50.228;18.936;2022-07-21T00:10:23;8.57;;;6.95;;
40116;SDS011;25829;50.228;18.936;2022-07-21T00:13:25;7.45;;;6.53;;
40116;SDS011;25829;50.228;18.936;2022-07-21T00:16:26;8.15;;;6.43;;
40116;SDS011;25829;50.228;18.936;2022-07-21T00:19:26;8.60;;;6.68;;
40116;SDS011;25829;50.228;18.936;2022-07-21T00:22:27;7.13;;;5.45;;
40116;SDS011;25829;50.228;18.936;2022-07-21T00:25:28;7.35;;;6.35;;
40116;SDS011;25829;50.228;18.936;2022-07-21T00:28:29;9.98;;;6.40;;
40116;SDS011;25829;50.228;18.936;2022-07-21T00:31:30;9.05;;;5.78;;
40116;SDS011;25829;50.228;18.936;2022-07-21T00:34:31;7.57;;;5.88;;
40116;SDS011;25829;50.228;18.936;2022-07-21T00:37:32;6.82;;;5.43;;
40116;SDS011;25829;50.228;18.936;2022-07-21T00:40:33;10.63;;;5.93;;
40116;SDS011;25829;50.228;18.936;2022-07-21T00:43:34;10.70;;;6.05;;
40116;SDS011;25829;50.228;18.936;2022-07-21T00:46:34;10.48;;;5.97;;
40116;SDS011;25829;50.228;18.936;2022-07-21T00:49:35;8.25;;;5.82;;
40116;SDS011;25829;50.228;18.936;2022-07-21T00:52:36;7.10;;;5.97;;
40116;SDS011;25829;50.228;18.936;2022-07-21T00:55:37;7.28;;;6.10;;
40116;SDS011;25829;50.228;18.936;2022-07-21T00:58:39;9.45;;;6.07;;
40116;SDS011;25829;50.228;18.936;2022-07-21T01:01:45;9.10;;;6.25;;
40116;SDS011;25829;50.228;18.936;2022-07-21T01:04:46;8.32;;;6.25;;
40116;SDS011;25829;50.228;18.936;2022-07-21T01:07:48;7.78;;;6.20;;
40116;SDS011;25829;50.228;18.936;2022-07-21T01:10:51;7.00;;;6.30;;
40116;SDS011;25829;50.228;18.936;2022-07-21T01:13:52;9.15;;;7.10;;
40116;SDS011;25829;50.228;18.936;2022-07-21T01:16:53;9.32;;;6.03;;
40116;SDS011;25829;50.228;18.936;2022-07-21T01:19:54;9.00;;;6.35;;
40116;SDS011;25829;50.228;18.936;2022-07-21T01:22:55;9.95;;;6.65;;
40116;SDS011;25829;50.228;18.936;2022-07-21T01:25:56;6.70;;;6.00;;
40116;SDS011;25829;50.228;18.936;2022-07-21T01:28:57;8.98;;;5.63;;
40116;SDS011;25829;50.228;18.936;2022-07-21T01:31:58;8.40;;;6.32;;
40116;SDS011;25829;50.228;18.936;2022-07-21T01:34:58;9.45;;;6.28;;
40116;SDS011;25829;50.228;18.936;2022-07-21T01:37:59;7.50;;;6.68;;
40116;SDS011;25829;50.228;18.936;2022-07-21T01:41:00;9.20;;;7.05;;
40116;SDS011;25829;50.228;18.936;2022-07-21T01:44:19;10.02;;;7.22;;
40116;SDS011;25829;50.228;18.936;2022-07-21T01:47:20;12.98;;;6.82;;
40116;SDS011;25829;50.228;18.936;2022-07-21T01:50:23;8.00;;;6.22;;
40116;SDS011;25829;50.228;18.936;2022-07-21T01:53:26;9.48;;;7.57;;
40116;SDS011;25829;50.228;18.936;2022-07-21T01:56:27;8.40;;;6.82;;
40116;SDS011;25829;50.228;18.936;2022-07-21T01:59:28;8.43;;;6.07;;
40116;SDS011;25829;50.228;18.936;2022-07-21T02:02:29;11.48;;;6.68;;
40116;SDS011;25829;50.228;18.936;2022-07-21T02:05:30;8.13;;;6.47;;
40116;SDS011;25829;50.228;18.936;2022-07-21T02:08:31;7.95;;;6.65;;
40116;SDS011;25829;50.228;18.936;2022-07-21T02:11:32;12.00;;;7.53;;
40116;SDS011;25829;50.228;18.936;2022-07-21T02:14:33;8.20;;;6.68;;
40116;SDS011;25829;50.228;18.936;2022-07-21T02:17:33;12.20;;;6.88;;
40116;SDS011;25829;50.228;18.936;2022-07-21T02:20:34;8.52;;;6.20;;
40116;SDS011;25829;50.228;18.936;2022-07-21T02:37:11;9.35;;;6.45;;
40116;SDS011;25829;50.228;18.936;2022-07-21T02:40:12;7.63;;;5.85;;
40116;SDS011;25829;50.228;18.936;2022-07-21T02:43:13;7.90;;;6.07;;
40116;SDS011;25829;50.228;18.936;2022-07-21T02:46:14;8.32;;;5.72;;
40116;SDS011;25829;50.228;18.936;2022-07-21T02:49:15;8.40;;;6.18;;
40116;SDS011;25829;50.228;18.936;2022-07-21T02:52:16;7.85;;;5.82;;
40116;SDS011;25829;50.228;18.936;2022-07-21T02:55:16;7.95;;;5.70;;
40116;SDS011;25829;50.228;18.936;2022-07-21T03:01:18;8.32;;;6.70;;
40116;SDS011;25829;50.228;18.936;2022-07-21T03:04:19;8.18;;;6.25;;
40116;SDS011;25829;50.228;18.936;2022-07-21T03:07:20;7.10;;;5.78;;
40116;SDS011;25829;50.228;18.936;2022-07-21T03:10:20;7.32;;;5.93;;
40116;SDS011;25829;50.228;18.936;2022-07-21T03:13:21;7.95;;;6.32;;
40116;SDS011;25829;50.228;18.936;2022-07-21T03:16:23;11.35;;;6.00;;
40116;SDS011;25829;50.228;18.936;2022-07-21T03:19:23;9.82;;;6.40;;
40116;SDS011;25829;50.228;18.936;2022-07-21T03:22:24;8.48;;;5.85;;
40116;SDS011;25829;50.228;18.936;2022-07-21T03:25:25;8.07;;;5.85;;
40116;SDS011;25829;50.228;18.936;2022-07-21T03:28:26;7.60;;;5.82;;
40116;SDS011;25829;50.228;18.936;2022-07-21T03:31:33;7.30;;;6.03;;
40116;SDS011;25829;50.228;18.936;2022-07-21T03:34:33;7.60;;;6.05;;
40116;SDS011;25829;50.228;18.936;2022-07-21T03:37:42;12.63;;;5.95;;
40116;SDS011;25829;50.228;18.936;2022-07-21T03:40:56;6.43;;;5.50;;
40116;SDS011;25829;50.228;18.936;2022-07-21T03:43:56;9.02;;;6.28;;
40116;SDS011;25829;50.228;18.936;2022-07-21T03:46:57;6.70;;;5.32;;
40116;SDS011;25829;50.228;18.936;2022-07-21T03:49:59;8.75;;;6.20;;
40116;SDS011;25829;50.228;18.936;2022-07-21T03:53:01;7.18;;;6.00;;
40116;SDS011;25829;50.228;18.936;2022-07-21T03:56:02;8.15;;;6.28;;
40116;SDS011;25829;50.228;18.936;2022-07-21T03:59:03;11.43;;;6.50;;
40116;SDS011;25829;50.228;18.936;2022-07-21T04:02:04;13.85;;;6.20;;
40116;SDS011;25829;50.228;18.936;2022-07-21T04:05:05;9.38;;;5.93;;
40116;SDS011;25829;50.228;18.936;2022-07-21T04:08:06;8.85;;;5.85;;
40116;SDS011;25829;50.228;18.936;2022-07-21T04:11:09;10.77;;;6.40;;
40116;SDS011;25829;50.228;18.936;2022-07-21T04:14:10;9.15;;;5.82;;
40116;SDS011;25829;50.228;18.936;2022-07-21T04:17:10;9.90;;;6.03;;
40116;SDS011;25829;50.228;18.936;2022-07-21T04:20:11;8.70;;;6.07;;
40116;SDS011;25829;50.228;18.936;2022-07-21T04:23:14;10.25;;;6.15;;
40116;SDS011;25829;50.228;18.936;2022-07-21T04:26:14;12.43;;;5.68;;
40116;SDS011;25829;50.228;18.936;2022-07-21T04:29:15;13.63;;;6.00;;
40116;SDS011;25829;50.228;18.936;2022-07-21T04:32:16;7.45;;;5.53;;
40116;SDS011;25829;50.228;18.936;2022-07-21T04:35:17;7.82;;;6.03;;
40116;SDS011;25829;50.228;18.936;2022-07-21T04:38:18;9.18;;;5.32;;
40116;SDS011;25829;50.228;18.936;2022-07-21T04:41:25;8.48;;;5.38;;
40116;SDS011;25829;50.228;18.936;2022-07-21T04:44:25;8.32;;;5.03;;
40116;SDS011;25829;50.228;18.936;2022-07-21T04:47:26;8.38;;;5.45;;
40116;SDS011;25829;50.228;18.936;2022-07-21T04:50:27;7.05;;;4.90;;
40116;SDS011;25829;50.228;18.936;2022-07-21T04:53:28;7.80;;;5.32;;
40116;SDS011;25829;50.228;18.936;2022-07-21T04:56:29;8.02;;;5.15;;
40116;SDS011;25829;50.228;18.936;2022-07-21T04:59:30;9.98;;;4.93;;
40116;SDS011;25829;50.228;18.936;2022-07-21T05:02:31;7.32;;;4.70;;
40116;SDS011;25829;50.228;18.936;2022-07-21T05:05:31;8.82;;;4.55;;
40116;SDS011;25829;50.228;18.936;2022-07-21T05:08:33;5.97;;;4.90;;
40116;SDS011;25829;50.228;18.936;2022-07-21T05:11:34;13.32;;;5.10;;
40116;SDS011;25829;50.228;18.936;2022-07-21T05:14:35;7.22;;;4.82;;
40116;SDS011;25829;50.228;18.936;2022-07-21T05:17:36;9.52;;;5.10;;
40116;SDS011;25829;50.228;18.936;2022-07-21T05:20:36;8.80;;;5.20;;
40116;SDS011;25829;50.228;18.936;2022-07-21T05:23:37;8.00;;;4.32;;
40116;SDS011;25829;50.228;18.936;2022-07-21T05:26:38;7.50;;;4.03;;
40116;SDS011;25829;50.228;18.936;2022-07-21T05:29:39;7.95;;;4.88;;
40116;SDS011;25829;50.228;18.936;2022-07-21T05:32:40;6.70;;;4.30;;
40116;SDS011;25829;50.228;18.936;2022-07-21T05:35:40;6.40;;;5.07;;
40116;SDS011;25829;50.228;18.936;2022-07-21T05:38:41;7.70;;;4.47;;
40116;SDS011;25829;50.228;18.936;2022-07-21T05:41:42;6.88;;;4.45;;
40116;SDS011;25829;50.228;18.936;2022-07-21T05:44:43;6.68;;;4.30;;
40116;SDS011;25829;50.228;18.936;2022-07-21T05:47:44;9.25;;;4.70;;
40116;SDS011;25829;50.228;18.936;2022-07-21T05:50:45;7.10;;;4.35;;
40116;SDS011;25829;50.228;18.936;2022-07-21T05:53:45;6.45;;;4.40;;
40116;SDS011;25829;50.228;18.936;2022-07-21T05:56:46;4.70;;;4.15;;
40116;SDS011;25829;50.228;18.936;2022-07-21T05:59:47;7.68;;;4.80;;
40116;SDS011;25829;50.228;18.936;2022-07-21T06:02:49;8.02;;;4.90;;
40116;SDS011;25829;50.228;18.936;2022-07-21T06:05:50;6.70;;;4.95;;
40116;SDS011;25829;50.228;18.936;2022-07-21T06:08:51;5.63;;;4.40;;
40116;SDS011;25829;50.228;18.936;2022-07-21T06:11:53;7.05;;;4.28;;
40116;SDS011;25829;50.228;18.936;2022-07-21T06:14:57;6.65;;;4.57;;
40116;SDS011;25829;50.228;18.936;2022-07-21T06:17:59;6.80;;;4.35;;
40116;SDS011;25829;50.228;18.936;2022-07-21T06:21:00;14.48;;;4.97;;
40116;SDS011;25829;50.228;18.936;2022-07-21T06:24:01;5.55;;;4.78;;
40116;SDS011;25829;50.228;18.936;2022-07-21T06:27:09;8.13;;;5.07;;
40116;SDS011;25829;50.228;18.936;2022-07-21T06:30:10;7.45;;;4.82;;
40116;SDS011;25829;50.228;18.936;2022-07-21T06:33:11;6.68;;;4.95;;
40116;SDS011;25829;50.228;18.936;2022-07-21T06:36:12;9.77;;;5.20;;
40116;SDS011;25829;50.228;18.936;2022-07-21T06:39:12;8.93;;;4.60;;
40116;SDS011;25829;50.228;18.936;2022-07-21T06:42:13;13.15;;;4.95;;
40116;SDS011;25829;50.228;18.936;2022-07-21T06:45:15;5.60;;;4.70;;
40116;SDS011;25829;50.228;18.936;2022-07-21T06:48:16;7.40;;;4.80;;
40116;SDS011;25829;50.228;18.936;2022-07-21T06:51:17;6.70;;;4.50;;
40116;SDS011;25829;50.228;18.936;2022-07-21T06:54:20;5.72;;;4.60;;
40116;SDS011;25829;50.228;18.936;2022-07-21T06:57:21;7.80;;;4.68;;
40116;SDS011;25829;50.228;18.936;2022-07-21T07:00:22;7.63;;;5.95;;
40116;SDS011;25829;50.228;18.936;2022-07-21T07:03:32;6.32;;;4.50;;
40116;SDS011;25829;50.228;18.936;2022-07-21T07:06:36;8.57;;;4.80;;
40116;SDS011;25829;50.228;18.936;2022-07-21T07:09:37;6.60;;;4.40;;
40116;SDS011;25829;50.228;18.936;2022-07-21T07:12:38;4.63;;;4.13;;
40116;SDS011;25829;50.228;18.936;2022-07-21T07:15:42;9.35;;;4.57;;
40116;SDS011;25829;50.228;18.936;2022-07-21T07:18:45;6.70;;;4.85;;
40116;SDS011;25829;50.228;18.936;2022-07-21T07:21:48;7.00;;;4.70;;
40116;SDS011;25829;50.228;18.936;2022-07-21T07:39:44;6.05;;;4.55;;
40116;SDS011;25829;50.228;18.936;2022-07-21T07:42:45;6.90;;;4.43;;
40116;SDS011;25829;50.228;18.936;2022-07-21T07:45:46;9.80;;;4.40;;
40116;SDS011;25829;50.228;18.936;2022-07-21T07:48:47;6.45;;;4.30;;
40116;SDS011;25829;50.228;18.936;2022-07-21T07:51:48;5.93;;;4.72;;
40116;SDS011;25829;50.228;18.936;2022-07-21T07:54:49;8.00;;;4.25;;
40116;SDS011;25829;50.228;18.936;2022-07-21T07:57:50;5.40;;;3.65;;
40116;SDS011;25829;50.228;18.936;2022-07-21T08:00:51;6.85;;;4.60;;
40116;SDS011;25829;50.228;18.936;2022-07-21T08:03:58;6.85;;;3.97;;
40116;SDS011;25829;50.228;18.936;2022-07-21T08:06:59;7.05;;;4.00;;
40116;SDS011;25829;50.228;18.936;2022-07-21T08:10:07;6.78;;;4.50;;
40116;SDS011;25829;50.228;18.936;2022-07-21T08:13:09;7.00;;;4.63;;
40116;SDS011;25829;50.228;18.936;2022-07-21T08:16:11;5.93;;;3.90;;
40116;SDS011;25829;50.228;18.936;2022-07-21T08:19:15;5.65;;;4.28;;
40116;SDS011;25829;50.228;18.936;2022-07-21T08:22:16;6.43;;;3.50;;
40116;SDS011;25829;50.228;18.936;2022-07-21T08:25:16;6.25;;;4.00;;
40116;SDS011;25829;50.228;18.936;2022-07-21T08:28:17;5.55;;;4.32;;
40116;SDS011;25829;50.228;18.936;2022-07-21T08:31:24;5.00;;;3.83;;
40116;SDS011;25829;50.228;18.936;2022-07-21T08:34:26;7.25;;;3.40;;
40116;SDS011;25829;50.228;18.936;2022-07-21T08:37:34;6.50;;;3.85;;
40116;SDS011;25829;50.228;18.936;2022-07-21T08:50:53;7.75;;;4.60;;
40116;SDS011;25829;50.228;18.936;2022-07-21T08:57:59;8.70;;;4.35;;
40116;SDS011;25829;50.228;18.936;2022-07-21T09:01:04;8.88;;;4.40;;
40116;SDS011;25829;50.228;18.936;2022-07-21T09:04:23;6.47;;;4.63;;
40116;SDS011;25829;50.228;18.936;2022-07-21T09:07:27;7.05;;;4.57;;
40116;SDS011;25829;50.228;18.936;2022-07-21T09:28:35;8.50;;;4.30;;
40116;SDS011;25829;50.228;18.936;2022-07-21T09:31:36;6.82;;;3.72;;
40116;SDS011;25829;50.228;18.936;2022-07-21T09:34:39;5.00;;;3.95;;
40116;SDS011;25829;50.228;18.936;2022-07-21T09:37:41;8.05;;;4.35;;
40116;SDS011;25829;50.228;18.936;2022-07-21T09:40:48;7.47;;;4.15;;
40116;SDS011;25829;50.228;18.936;2022-07-21T09:43:50;6.60;;;4.40;;
40116;SDS011;25829;50.228;18.936;2022-07-21T09:47:08;5.82;;;4.00;;
40116;SDS011;25829;50.228;18.936;2022-07-21T09:50:11;8.85;;;4.43;;
40116;SDS011;25829;50.228;18.936;2022-07-21T09:53:16;8.27;;;4.60;;
40116;SDS011;25829;50.228;18.936;2022-07-21T10:06:14;9.27;;;4.82;;
40116;SDS011;25829;50.228;18.936;2022-07-21T10:09:16;6.00;;;4.50;;
40116;SDS011;25829;50.228;18.936;2022-07-21T10:12:27;6.75;;;4.28;;
40116;SDS011;25829;50.228;18.936;2022-07-21T10:15:45;11.80;;;4.50;;
40116;SDS011;25829;50.228;18.936;2022-07-21T10:22:51;8.98;;;4.82;;
40116;SDS011;25829;50.228;18.936;2022-07-21T10:25:58;6.57;;;3.80;;
40116;SDS011;25829;50.228;18.936;2022-07-21T10:28:59;5.53;;;3.53;;
40116;SDS011;25829;50.228;18.936;2022-07-21T10:32:11;10.32;;;4.30;;
40116;SDS011;25829;50.228;18.936;2022-07-21T10:35:27;12.98;;;4.40;;
40116;SDS011;25829;50.228;18.936;2022-07-21T10:38:30;7.90;;;4.20;;
40116;SDS011;25829;50.228;18.936;2022-07-21T10:41:51;8.00;;;3.85;;
40116;SDS011;25829;50.228;18.936;2022-07-21T10:44:55;4.10;;;3.30;;
40116;SDS011;25829;50.228;18.936;2022-07-21T10:47:56;7.72;;;3.97;;
40116;SDS011;25829;50.228;18.936;2022-07-21T10:50:57;8.55;;;3.90;;
40116;SDS011;25829;50.228;18.936;2022-07-21T10:54:20;7.78;;;3.90;;
40116;SDS011;25829;50.228;18.936;2022-07-21T10:57:38;7.90;;;3.55;;
40116;SDS011;25829;50.228;18.936;2022-07-21T11:00:46;6.32;;;3.70;;
40116;SDS011;25829;50.228;18.936;2022-07-21T11:04:13;5.22;;;3.33;;
40116;SDS011;25829;50.228;18.936;2022-07-21T11:07:17;4.85;;;3.70;;
40116;SDS011;25829;50.228;18.936;2022-07-21T11:10:18;10.23;;;3.35;;
40116;SDS011;25829;50.228;18.936;2022-07-21T11:19:52;9.52;;;3.88;;
40116;SDS011;25829;50.228;18.936;2022-07-21T11:23:00;8.18;;;3.70;;
40116;SDS011;25829;50.228;18.936;2022-07-21T11:26:17;4.65;;;3.90;;
40116;SDS011;25829;50.228;18.936;2022-07-21T11:29:19;6.05;;;4.25;;
40116;SDS011;25829;50.228;18.936;2022-07-21T11:32:20;9.02;;;4.13;;
40116;SDS011;25829;50.228;18.936;2022-07-21T11:35:21;6.82;;;4.00;;
40116;SDS011;25829;50.228;18.936;2022-07-21T11:38:25;4.45;;;3.10;;
40116;SDS011;25829;50.228;18.936;2022-07-21T11:41:26;8.65;;;4.25;;
40116;SDS011;25829;50.228;18.936;2022-07-21T11:44:27;5.38;;;3.92;;
40116;SDS011;25829;50.228;18.936;2022-07-21T11:47:28;3.90;;;3.38;;
40116;SDS011;25829;50.228;18.936;2022-07-21T11:50:30;8.68;;;3.83;;
40116;SDS011;25829;50.228;18.936;2022-07-21T11:53:34;6.05;;;3.35;;
40116;SDS011;25829;50.228;18.936;2022-07-21T11:56:38;8.60;;;3.40;;
40116;SDS011;25829;50.228;18.936;2022-07-21T11:59:39;7.00;;;4.00;;
40116;SDS011;25829;50.228;18.936;2022-07-21T12:02:44;4.68;;;3.22;;
40116;SDS011;25829;50.228;18.936;2022-07-21T12:05:44;9.00;;;3.65;;
40116;SDS011;25829;50.228;18.936;2022-07-21T12:08:57;3.83;;;3.40;;
40116;SDS011;25829;50.228;18.936;2022-07-21T12:11:59;9.80;;;3.65;;
40116;SDS011;25829;50.228;18.936;2022-07-21T12:15:10;4.55;;;3.33;;
40116;SDS011;25829;50.228;18.936;2022-07-21T12:18:20;8.98;;;3.63;;
40116;SDS011;25829;50.228;18.936;2022-07-21T12:21:25;6.80;;;3.63;;
40116;SDS011;25829;50.228;18.936;2022-07-21T12:27:56;8.48;;;4.10;;
40116;SDS011;25829;50.228;18.936;2022-07-21T12:31:09;10.25;;;3.90;;
40116;SDS011;25829;50.228;18.936;2022-07-21T12:34:16;7.88;;;3.60;;
40116;SDS011;25829;50.228;18.936;2022-07-21T12:37:22;6.68;;;3.70;;
40116;SDS011;25829;50.228;18.936;2022-07-21T12:40:59;4.70;;;4.00;;
40116;SDS011;25829;50.228;18.936;2022-07-21T12:44:00;7.05;;;3.97;;
40116;SDS011;25829;50.228;18.936;2022-07-21T12:47:14;9.20;;;4.40;;
40116;SDS011;25829;50.228;18.936;2022-07-21T12:51:12;8.48;;;3.85;;
40116;SDS011;25829;50.228;18.936;2022-07-21T12:54:46;5.85;;;3.88;;
40116;SDS011;25829;50.228;18.936;2022-07-21T12:57:52;7.60;;;4.00;;
40116;SDS011;25829;50.228;18.936;2022-07-21T13:00:54;8.25;;;3.50;;
40116;SDS011;25829;50.228;18.936;2022-07-21T13:04:01;9.35;;;4.47;;
40116;SDS011;25829;50.228;18.936;2022-07-21T13:07:05;7.60;;;4.07;;
40116;SDS011;25829;50.228;18.936;2022-07-21T13:10:05;8.88;;;4.10;;
40116;SDS011;25829;50.228;18.936;2022-07-21T13:13:09;9.98;;;3.95;;
40116;SDS011;25829;50.228;18.936;2022-07-21T13:16:12;8.68;;;4.63;;
40116;SDS011;25829;50.228;18.936;2022-07-21T13:19:13;4.63;;;3.30;;
40116;SDS011;25829;50.228;18.936;2022-07-21T13:22:14;8.25;;;4.00;;
40116;SDS011;25829;50.228;18.936;2022-07-21T13:25:28;7.15;;;4.00;;
40116;SDS011;25829;50.228;18.936;2022-07-21T13:28:36;5.38;;;3.80;;
40116;SDS011;25829;50.228;18.936;2022-07-21T13:35:09;8.60;;;4.50;;
40116;SDS011;25829;50.228;18.936;2022-07-21T13:38:10;7.78;;;4.45;;
40116;SDS011;25829;50.228;18.936;2022-07-21T13:41:11;9.95;;;4.32;;
40116;SDS011;25829;50.228;18.936;2022-07-21T13:44:13;9.55;;;3.97;;
40116;SDS011;25829;50.228;18.936;2022-07-21T13:47:16;8.70;;;4.07;;
40116;SDS011;25829;50.228;18.936;2022-07-21T13:50:17;9.38;;;3.83;;
40116;SDS011;25829;50.228;18.936;2022-07-21T13:53:21;12.55;;;3.83;;
40116;SDS011;25829;50.228;18.936;2022-07-21T13:56:29;6.72;;;3.70;;
40116;SDS011;25829;50.228;18.936;2022-07-21T13:59:50;12.52;;;3.47;;
40116;SDS011;25829;50.228;18.936;2022-07-21T14:02:59;8.93;;;3.58;;
40116;SDS011;25829;50.228;18.936;2022-07-21T14:06:00;7.20;;;3.67;;
40116;SDS011;25829;50.228;18.936;2022-07-21T14:09:02;9.60;;;3.63;;
40116;SDS011;25829;50.228;18.936;2022-07-21T14:12:03;8.38;;;3.90;;
40116;SDS011;25829;50.228;18.936;2022-07-21T14:15:07;10.60;;;3.97;;
40116;SDS011;25829;50.228;18.936;2022-07-21T14:18:08;6.03;;;3.80;;
40116;SDS011;25829;50.228;18.936;2022-07-21T14:21:09;9.20;;;3.75;;
40116;SDS011;25829;50.228;18.936;2022-07-21T14:24:10;9.52;;;3.72;;
40116;SDS011;25829;50.228;18.936;2022-07-21T14:27:36;8.35;;;3.70;;
40116;SDS011;25829;50.228;18.936;2022-07-21T14:30:36;10.77;;;4.32;;
40116;SDS011;25829;50.228;18.936;2022-07-21T14:33:40;10.45;;;3.90;;
40116;SDS011;25829;50.228;18.936;2022-07-21T14:36:41;8.23;;;3.10;;
40116;SDS011;25829;50.228;18.936;2022-07-21T14:39:42;9.88;;;3.60;;
40116;SDS011;25829;50.228;18.936;2022-07-21T14:42:43;7.47;;;3.70;;
40116;SDS011;25829;50.228;18.936;2022-07-21T14:45:46;12.07;;;3.97;;
40116;SDS011;25829;50.228;18.936;2022-07-21T14:49:08;6.68;;;3.45;;
40116;SDS011;25829;50.228;18.936;2022-07-21T14:52:09;6.15;;;3.17;;
40116;SDS011;25829;50.228;18.936;2022-07-21T14:55:13;8.02;;;3.38;;
40116;SDS011;25829;50.228;18.936;2022-07-21T14:58:17;7.28;;;3.72;;
40116;SDS011;25829;50.228;18.936;2022-07-21T15:01:17;7.82;;;3.60;;
40116;SDS011;25829;50.228;18.936;2022-07-21T15:04:18;7.40;;;3.00;;
40116;SDS011;25829;50.228;18.936;2022-07-21T15:07:25;7.75;;;3.72;;
40116;SDS011;25829;50.228;18.936;2022-07-21T15:10:26;6.55;;;4.15;;
40116;SDS011;25829;50.228;18.936;2022-07-21T15:13:29;10.15;;;3.58;;
40116;SDS011;25829;50.228;18.936;2022-07-21T15:16:35;7.75;;;3.47;;
40116;SDS011;25829;50.228;18.936;2022-07-21T15:19:36;6.65;;;3.53;;
40116;SDS011;25829;50.228;18.936;2022-07-21T15:22:36;5.82;;;3.85;;
40116;SDS011;25829;50.228;18.936;2022-07-21T15:25:37;5.47;;;2.90;;
40116;SDS011;25829;50.228;18.936;2022-07-21T15:28:41;8.85;;;3.60;;
40116;SDS011;25829;50.228;18.936;2022-07-21T15:31:41;7.03;;;3.55;;
40116;SDS011;25829;50.228;18.936;2022-07-21T15:34:53;9.45;;;3.42;;
40116;SDS011;25829;50.228;18.936;2022-07-21T15:37:53;7.90;;;3.60;;
40116;SDS011;25829;50.228;18.936;2022-07-21T15:40:54;9.35;;;3.97;;
40116;SDS011;25829;50.228;18.936;2022-07-21T15:43:55;9.48;;;4.30;;
40116;SDS011;25829;50.228;18.936;2022-07-21T15:46:58;9.68;;;3.53;;
40116;SDS011;25829;50.228;18.936;2022-07-21T15:50:15;7.53;;;3.55;;
40116;SDS011;25829;50.228;18.936;2022-07-21T15:53:15;11.10;;;4.43;;
40116;SDS011;25829;50.228;18.936;2022-07-21T15:56:16;7.00;;;3.35;;
40116;SDS011;25829;50.228;18.936;2022-07-21T15:59:17;8.23;;;3.55;;
40116;SDS011;25829;50.228;18.936;2022-07-21T16:02:37;5.18;;;3.45;;
40116;SDS011;25829;50.228;18.936;2022-07-21T16:05:41;11.27;;;3.95;;
40116;SDS011;25829;50.228;18.936;2022-07-21T16:08:44;6.05;;;3.75;;
40116;SDS011;25829;50.228;18.936;2022-07-21T16:11:45;7.82;;;3.83;;
40116;SDS011;25829;50.228;18.936;2022-07-21T16:14:45;11.40;;;3.65;;
40116;SDS011;25829;50.228;18.936;2022-07-21T16:17:46;7.45;;;3.30;;
40116;SDS011;25829;50.228;18.936;2022-07-21T16:20:50;7.63;;;3.67;;
40116;SDS011;25829;50.228;18.936;2022-07-21T16:24:03;6.80;;;3.45;;
40116;SDS011;25829;50.228;18.936;2022-07-21T16:27:07;5.88;;;3.28;;
40116;SDS011;25829;50.228;18.936;2022-07-21T16:30:08;8.13;;;3.58;;
40116;SDS011;25829;50.228;18.936;2022-07-21T16:33:12;13.75;;;3.95;;
40116;SDS011;25829;50.228;18.936;2022-07-21T16:36:13;9.65;;;4.18;;
40116;SDS011;25829;50.228;18.936;2022-07-21T16:39:15;6.90;;;3.90;;
40116;SDS011;25829;50.228;18.936;2022-07-21T16:42:20;6.93;;;4.40;;
40116;SDS011;25829;50.228;18.936;2022-07-21T16:45:21;10.80;;;3.63;;
40116;SDS011;25829;50.228;18.936;2022-07-21T16:48:21;7.53;;;4.13;;
40116;SDS011;25829;50.228;18.936;2022-07-21T16:51:22;7.72;;;4.22;;
40116;SDS011;25829;50.228;18.936;2022-07-21T16:54:23;6.82;;;3.83;;
40116;SDS011;25829;50.228;18.936;2022-07-21T16:57:24;9.25;;;3.55;;
40116;SDS011;25829;50.228;18.936;2022-07-21T17:00:25;9.48;;;4.07;;
40116;SDS011;25829;50.228;18.936;2022-07-21T17:03:32;7.13;;;3.70;;
40116;SDS011;25829;50.228;18.936;2022-07-21T17:06:32;9.15;;;3.75;;
40116;SDS011;25829;50.228;18.936;2022-07-21T17:09:37;9.65;;;4.00;;
40116;SDS011;25829;50.228;18.936;2022-07-21T17:12:41;8.43;;;3.88;;
40116;SDS011;25829;50.228;18.936;2022-07-21T17:15:43;5.85;;;3.70;;
40116;SDS011;25829;50.228;18.936;2022-07-21T17:18:47;6.65;;;3.75;;
40116;SDS011;25829;50.228;18.936;2022-07-21T17:21:48;9.73;;;4.20;;
40116;SDS011;25829;50.228;18.936;2022-07-21T17:24:49;8.65;;;4.00;;
40116;SDS011;25829;50.228;18.936;2022-07-21T17:27:58;6.00;;;3.40;;
40116;SDS011;25829;50.228;18.936;2022-07-21T17:30:59;11.85;;;3.83;;
40116;SDS011;25829;50.228;18.936;2022-07-21T17:34:00;5.78;;;3.85;;
40116;SDS011;25829;50.228;18.936;2022-07-21T17:37:01;10.18;;;3.78;;
40116;SDS011;25829;50.228;18.936;2022-07-21T17:40:06;9.65;;;4.15;;
40116;SDS011;25829;50.228;18.936;2022-07-21T17:43:07;9.80;;;3.80;;
40116;SDS011;25829;50.228;18.936;2022-07-21T17:46:08;11.55;;;3.78;;
40116;SDS011;25829;50.228;18.936;2022-07-21T17:49:09;9.95;;;3.97;;
40116;SDS011;25829;50.228;18.936;2022-07-21T17:52:09;8.98;;;4.10;;
40116;SDS011;25829;50.228;18.936;2022-07-21T17:55:10;6.78;;;3.30;;
40116;SDS011;25829;50.228;18.936;2022-07-21T17:58:12;5.93;;;3.35;;
40116;SDS011;25829;50.228;18.936;2022-07-21T18:01:37;7.88;;;3.33;;
40116;SDS011;25829;50.228;18.936;2022-07-21T18:04:38;7.25;;;3.35;;
40116;SDS011;25829;50.228;18.936;2022-07-21T18:07:39;10.63;;;3.75;;
40116;SDS011;25829;50.228;18.936;2022-07-21T18:10:40;6.90;;;3.40;;
40116;SDS011;25829;50.228;18.936;2022-07-21T18:13:40;6.93;;;3.67;;
40116;SDS011;25829;50.228;18.936;2022-07-21T18:16:41;8.07;;;3.95;;
40116;SDS011;25829;50.228;18.936;2022-07-21T18:19:42;10.38;;;3.78;;
40116;SDS011;25829;50.228;18.936;2022-07-21T18:22:43;7.32;;;3.53;;
40116;SDS011;25829;50.228;18.936;2022-07-21T18:25:45;7.53;;;3.80;;
40116;SDS011;25829;50.228;18.936;2022-07-21T18:28:45;7.72;;;3.80;;
40116;SDS011;25829;50.228;18.936;2022-07-21T18:31:49;6.93;;;3.55;;
40116;SDS011;25829;50.228;18.936;2022-07-21T18:34:50;7.20;;;4.10;;
40116;SDS011;25829;50.228;18.936;2022-07-21T18:37:51;7.82;;;4.00;;
40116;SDS011;25829;50.228;18.936;2022-07-21T18:40:51;12.57;;;3.80;;
40116;SDS011;25829;50.228;18.936;2022-07-21T18:43:52;8.30;;;3.95;;
40116;SDS011;25829;50.228;18.936;2022-07-21T18:46:53;6.72;;;3.97;;
40116;SDS011;25829;50.228;18.936;2022-07-21T18:50:03;3.95;;;3.30;;
40116;SDS011;25829;50.228;18.936;2022-07-21T18:53:06;7.38;;;3.70;;
40116;SDS011;25829;50.228;18.936;2022-07-21T18:56:06;6.18;;;4.00;;
40116;SDS011;25829;50.228;18.936;2022-07-21T18:59:14;6.93;;;4.18;;
40116;SDS011;25829;50.228;18.936;2022-07-21T19:02:15;6.57;;;3.85;;
40116;SDS011;25829;50.228;18.936;2022-07-21T19:05:21;10.07;;;4.25;;
40116;SDS011;25829;50.228;18.936;2022-07-21T19:08:22;6.40;;;3.88;;
40116;SDS011;25829;50.228;18.936;2022-07-21T19:11:23;11.45;;;4.07;;
40116;SDS011;25829;50.228;18.936;2022-07-21T19:14:24;8.85;;;4.55;;
40116;SDS011;25829;50.228;18.936;2022-07-21T19:17:25;6.68;;;4.20;;
40116;SDS011;25829;50.228;18.936;2022-07-21T19:20:29;6.72;;;3.92;;
40116;SDS011;25829;50.228;18.936;2022-07-21T19:23:29;5.85;;;4.50;;
40116;SDS011;25829;50.228;18.936;2022-07-21T19:26:30;8.43;;;4.47;;
40116;SDS011;25829;50.228;18.936;2022-07-21T19:29:31;7.55;;;3.90;;
40116;SDS011;25829;50.228;18.936;2022-07-21T19:32:32;5.55;;;3.75;;
40116;SDS011;25829;50.228;18.936;2022-07-21T19:35:44;5.60;;;3.80;;
40116;SDS011;25829;50.228;18.936;2022-07-21T19:38:45;7.05;;;3.65;;